createdAt,value
2022-11-16T00:09:52.713Z,100
2022-11-16T00:19:54.813Z,100
2022-11-16T00:29:57.120Z,100
2022-11-16T00:39:59.884Z,100
2022-11-16T00:50:01.750Z,100
2022-11-16T01:00:04.049Z,100
2022-11-16T01:10:05.940Z,100
2022-11-16T01:20:07.997Z,100
2022-11-16T01:30:09.939Z,100
2022-11-16T01:40:12.232Z,100
2022-11-16T01:50:14.377Z,100
2022-11-16T02:00:16.833Z,100
2022-11-16T02:10:19.174Z,100
2022-11-16T02:20:21.070Z,100
2022-11-16T02:30:22.999Z,100
2022-11-16T02:40:25.597Z,100
2022-11-16T02:50:27.306Z,100
2022-11-16T03:00:29.874Z,100
2022-11-16T03:10:32.079Z,100
2022-11-16T03:20:34.700Z,100
2022-11-16T03:30:36.805Z,100
2022-11-16T03:40:38.902Z,100
2022-11-16T03:50:40.868Z,100
2022-11-16T04:00:42.998Z,100
2022-11-16T04:10:44.812Z,100
2022-11-16T04:20:47.422Z,100
2022-11-16T04:30:49.657Z,100
2022-11-16T04:40:51.430Z,100
2022-11-16T04:50:53.122Z,100
2022-11-16T05:00:55.058Z,100
2022-11-16T05:10:56.772Z,100
2022-11-16T05:20:59.028Z,100
2022-11-16T05:31:00.876Z,100
2022-11-16T05:41:03.194Z,100
2022-11-16T05:51:05.696Z,100
2022-11-16T06:01:08.282Z,100
2022-11-16T06:11:10.688Z,100
2022-11-16T06:21:13.146Z,100
2022-11-16T06:24:07.656Z,100
2022-11-16T06:31:25.630Z,100
2022-11-16T06:41:27.286Z,100
2022-11-16T06:51:29.981Z,100
2022-11-16T07:01:32.557Z,100
2022-11-16T07:11:34.330Z,100
2022-11-16T07:21:36.863Z,100
2022-11-16T07:31:39.039Z,100
2022-11-16T07:41:41.093Z,100
2022-11-16T07:51:43.193Z,100
2022-11-16T08:01:45.300Z,100
2022-11-16T08:11:47.443Z,100
2022-11-16T08:21:49.327Z,100
2022-11-16T08:31:51.487Z,100
2022-11-16T08:41:53.253Z,100
2022-11-16T08:51:55.582Z,100
2022-11-16T09:01:57.617Z,100
2022-11-16T09:11:59.867Z,100
2022-11-16T09:22:02.000Z,100
2022-11-16T09:32:04.225Z,100
2022-11-16T09:42:06.197Z,100
2022-11-16T09:52:08.326Z,99
2022-11-16T10:02:10.607Z,95
2022-11-16T10:12:13.068Z,93
2022-11-16T10:22:15.315Z,88
2022-11-16T10:32:17.626Z,87
2022-11-16T10:42:20.086Z,82
2022-11-16T10:52:22.259Z,79
2022-11-16T11:02:24.203Z,81
2022-11-16T11:12:26.327Z,79
2022-11-16T11:22:28.352Z,75
2022-11-16T11:32:30.071Z,78
2022-11-16T11:42:32.679Z,77
2022-11-16T11:52:35.034Z,76
2022-11-16T12:12:39.705Z,68
2022-11-16T12:22:41.466Z,71
2022-11-16T12:32:43.218Z,72
2022-11-16T12:42:45.152Z,73
2022-11-16T12:52:47.273Z,72
2022-11-16T13:02:49.275Z,70
2022-11-16T13:12:55.694Z,69
2022-11-16T13:22:53.816Z,72
2022-11-16T13:32:56.164Z,69
2022-11-16T13:42:57.865Z,68
2022-11-16T13:53:51.486Z,67
2022-11-16T14:03:02.296Z,68
2022-11-16T14:13:04.589Z,71
2022-11-16T14:23:06.775Z,73
2022-11-16T14:33:09.032Z,72
2022-11-16T14:43:17.366Z,74
2022-11-16T14:53:13.788Z,75
2022-11-16T15:03:16.064Z,77
2022-11-16T15:13:17.936Z,77
2022-11-16T15:23:19.897Z,77
2022-11-16T15:33:22.286Z,78
2022-11-16T15:43:24.208Z,79
2022-11-16T15:53:26.359Z,80
2022-11-16T16:13:30.109Z,83
2022-11-16T16:23:33.190Z,84
2022-11-16T16:33:35.359Z,85
2022-11-16T16:43:37.296Z,86
2022-11-16T16:53:38.885Z,87
2022-11-16T17:03:41.452Z,87
2022-11-16T17:13:43.565Z,87
2022-11-16T17:23:46.201Z,87
2022-11-16T17:33:48.776Z,88
2022-11-16T17:43:51.333Z,88
2022-11-16T17:53:53.163Z,88
2022-11-16T18:03:55.642Z,89
2022-11-16T18:13:57.922Z,90
2022-11-16T18:23:59.607Z,90
2022-11-16T18:34:01.785Z,91
2022-11-16T18:44:04.022Z,91
2022-11-16T18:54:06.430Z,92
2022-11-16T19:04:08.676Z,93
2022-11-16T19:14:10.923Z,93
2022-11-16T19:24:13.485Z,94
2022-11-16T19:34:15.665Z,95
2022-11-16T19:44:17.929Z,96
2022-11-16T19:54:20.133Z,96
2022-11-16T20:04:22.145Z,97
2022-11-16T20:14:24.196Z,98
2022-11-16T20:24:25.943Z,99
2022-11-16T20:34:27.967Z,100
2022-11-16T20:44:30.390Z,100
2022-11-16T20:54:32.208Z,100
2022-11-16T21:04:33.971Z,100
2022-11-16T21:14:35.833Z,100
2022-11-16T21:24:38.275Z,100
2022-11-16T21:34:40.401Z,100
2022-11-16T21:44:42.045Z,100
2022-11-16T21:54:44.512Z,100
2022-11-16T22:04:46.375Z,100
2022-11-16T22:24:50.912Z,100
2022-11-16T22:34:53.198Z,100
2022-11-16T22:44:55.859Z,100
2022-11-16T22:54:57.649Z,100
2022-11-16T23:04:59.423Z,100
2022-11-16T23:15:01.334Z,100
2022-11-16T23:25:03.531Z,100
2022-11-16T23:35:05.168Z,100
2022-11-16T23:45:07.424Z,100
2022-11-16T23:55:09.837Z,100
